Abilene, Kansas
Current Conditions -  °F | °C
As of 8:05 PM on Sunday 21 Dec 2014 (Local Time) from KSLN Reporting Station
Light Rain Light Rain  
Wind Chill:   Ceiling: 800
Heat Index:   Visibility: 7mi
Dew Point:   Wind: 10mph
Humidity: 93%   Direction: 170°S
Pressure: 29.67"   Gusts: NA
Location:  38.92°N, 97.21°W
Report Text: KSLN 220205Z 17009KT 7SM -RA OVC008 07/06 A2967 RMK AO2 P0000 T00720061
Loading
Personal Weather Stations






























Interactive Weather Map New forecast layout! Learn more

10-Day Weather Forecast

Advertisements
Track Severe Weather on mobile